sensor_id;sensor_type;location;lat;lon;timestamp;P1;durP1;ratioP1;P2;durP2;ratioP2
5519;SDS011;2782;52.362;10.012;2023-07-20T00:00:51;8.88;;;2.78;;
5519;SDS011;2782;52.362;10.012;2023-07-20T00:01:53;9.55;;;2.95;;
5519;SDS011;2782;52.362;10.012;2023-07-20T00:03:05;9.90;;;2.72;;
5519;SDS011;2782;52.362;10.012;2023-07-20T00:04:11;6.72;;;2.35;;
5519;SDS011;2782;52.362;10.012;2023-07-20T00:05:14;9.68;;;3.30;;
5519;SDS011;2782;52.362;10.012;2023-07-20T00:06:18;12.60;;;2.85;;
5519;SDS011;2782;52.362;10.012;2023-07-20T00:07:19;10.25;;;3.05;;
5519;SDS011;2782;52.362;10.012;2023-07-20T00:08:20;11.80;;;3.30;;
5519;SDS011;2782;52.362;10.012;2023-07-20T00:09:22;5.65;;;2.33;;
5519;SDS011;2782;52.362;10.012;2023-07-20T00:10:22;8.97;;;2.97;;
5519;SDS011;2782;52.362;10.012;2023-07-20T00:11:26;9.38;;;2.90;;
5519;SDS011;2782;52.362;10.012;2023-07-20T00:12:27;10.35;;;3.20;;
5519;SDS011;2782;52.362;10.012;2023-07-20T00:13:29;9.13;;;3.00;;
5519;SDS011;2782;52.362;10.012;2023-07-20T00:14:29;11.60;;;3.33;;
5519;SDS011;2782;52.362;10.012;2023-07-20T00:15:33;12.90;;;3.63;;
5519;SDS011;2782;52.362;10.012;2023-07-20T00:16:34;8.73;;;3.15;;
5519;SDS011;2782;52.362;10.012;2023-07-20T00:17:35;9.43;;;3.05;;
5519;SDS011;2782;52.362;10.012;2023-07-20T00:18:37;7.50;;;2.15;;
5519;SDS011;2782;52.362;10.012;2023-07-20T00:19:38;7.70;;;3.20;;
5519;SDS011;2782;52.362;10.012;2023-07-20T00:20:39;10.17;;;2.83;;
5519;SDS011;2782;52.362;10.012;2023-07-20T00:21:41;8.20;;;2.88;;
5519;SDS011;2782;52.362;10.012;2023-07-20T00:22:42;8.88;;;2.60;;
5519;SDS011;2782;52.362;10.012;2023-07-20T00:23:43;10.20;;;2.73;;
5519;SDS011;2782;52.362;10.012;2023-07-20T00:24:45;8.18;;;2.83;;
5519;SDS011;2782;52.362;10.012;2023-07-20T00:25:46;10.60;;;2.70;;
5519;SDS011;2782;52.362;10.012;2023-07-20T00:26:48;9.90;;;2.65;;
5519;SDS011;2782;52.362;10.012;2023-07-20T00:27:49;7.38;;;2.30;;
5519;SDS011;2782;52.362;10.012;2023-07-20T00:28:51;9.52;;;2.65;;
5519;SDS011;2782;52.362;10.012;2023-07-20T00:29:51;11.33;;;3.47;;
5519;SDS011;2782;52.362;10.012;2023-07-20T00:30:54;8.13;;;2.60;;
5519;SDS011;2782;52.362;10.012;2023-07-20T00:31:55;8.02;;;2.70;;
5519;SDS011;2782;52.362;10.012;2023-07-20T00:32:57;9.95;;;2.03;;
5519;SDS011;2782;52.362;10.012;2023-07-20T00:33:57;5.17;;;2.13;;
5519;SDS011;2782;52.362;10.012;2023-07-20T00:34:59;10.60;;;2.75;;
5519;SDS011;2782;52.362;10.012;2023-07-20T00:36:00;9.63;;;2.50;;
5519;SDS011;2782;52.362;10.012;2023-07-20T00:37:02;6.78;;;2.97;;
5519;SDS011;2782;52.362;10.012;2023-07-20T00:38:03;10.07;;;3.10;;
5519;SDS011;2782;52.362;10.012;2023-07-20T00:39:05;8.23;;;2.80;;
5519;SDS011;2782;52.362;10.012;2023-07-20T00:40:06;8.70;;;2.73;;
5519;SDS011;2782;52.362;10.012;2023-07-20T00:41:08;11.43;;;2.67;;
5519;SDS011;2782;52.362;10.012;2023-07-20T00:42:08;9.00;;;2.87;;
5519;SDS011;2782;52.362;10.012;2023-07-20T00:43:10;7.55;;;2.80;;
5519;SDS011;2782;52.362;10.012;2023-07-20T00:44:11;7.43;;;2.30;;
5519;SDS011;2782;52.362;10.012;2023-07-20T00:45:12;7.18;;;2.47;;
5519;SDS011;2782;52.362;10.012;2023-07-20T00:46:15;8.02;;;2.67;;
5519;SDS011;2782;52.362;10.012;2023-07-20T00:47:16;6.70;;;2.70;;
5519;SDS011;2782;52.362;10.012;2023-07-20T00:48:17;8.85;;;2.40;;
5519;SDS011;2782;52.362;10.012;2023-07-20T00:49:18;9.07;;;2.95;;
5519;SDS011;2782;52.362;10.012;2023-07-20T00:50:21;8.38;;;2.80;;
5519;SDS011;2782;52.362;10.012;2023-07-20T00:51:23;3.35;;;1.90;;
5519;SDS011;2782;52.362;10.012;2023-07-20T00:52:25;6.28;;;2.05;;
5519;SDS011;2782;52.362;10.012;2023-07-20T00:53:29;12.00;;;2.67;;
5519;SDS011;2782;52.362;10.012;2023-07-20T00:54:30;6.65;;;2.22;;
5519;SDS011;2782;52.362;10.012;2023-07-20T00:55:32;5.80;;;2.58;;
5519;SDS011;2782;52.362;10.012;2023-07-20T00:56:33;8.68;;;3.10;;
5519;SDS011;2782;52.362;10.012;2023-07-20T00:57:35;7.10;;;2.70;;
5519;SDS011;2782;52.362;10.012;2023-07-20T00:58:36;6.13;;;2.33;;
5519;SDS011;2782;52.362;10.012;2023-07-20T00:59:37;6.77;;;2.80;;
5519;SDS011;2782;52.362;10.012;2023-07-20T01:00:38;8.10;;;2.78;;
5519;SDS011;2782;52.362;10.012;2023-07-20T01:01:40;6.87;;;2.67;;
5519;SDS011;2782;52.362;10.012;2023-07-20T01:02:42;11.80;;;2.42;;
5519;SDS011;2782;52.362;10.012;2023-07-20T01:03:43;5.17;;;2.17;;
5519;SDS011;2782;52.362;10.012;2023-07-20T01:04:45;5.18;;;1.88;;
5519;SDS011;2782;52.362;10.012;2023-07-20T01:05:47;4.83;;;1.70;;
5519;SDS011;2782;52.362;10.012;2023-07-20T01:07:01;11.18;;;2.38;;
5519;SDS011;2782;52.362;10.012;2023-07-20T01:08:11;8.73;;;2.17;;
5519;SDS011;2782;52.362;10.012;2023-07-20T01:09:19;5.78;;;2.05;;
5519;SDS011;2782;52.362;10.012;2023-07-20T01:10:28;7.97;;;2.30;;
5519;SDS011;2782;52.362;10.012;2023-07-20T01:11:36;9.10;;;2.22;;
5519;SDS011;2782;52.362;10.012;2023-07-20T01:12:42;5.65;;;2.17;;
5519;SDS011;2782;52.362;10.012;2023-07-20T01:13:47;3.80;;;2.10;;
5519;SDS011;2782;52.362;10.012;2023-07-20T01:14:48;6.77;;;2.30;;
5519;SDS011;2782;52.362;10.012;2023-07-20T01:15:49;8.05;;;2.28;;
5519;SDS011;2782;52.362;10.012;2023-07-20T01:16:53;4.45;;;2.40;;
5519;SDS011;2782;52.362;10.012;2023-07-20T01:17:54;5.90;;;2.28;;
5519;SDS011;2782;52.362;10.012;2023-07-20T01:18:55;6.63;;;2.42;;
5519;SDS011;2782;52.362;10.012;2023-07-20T01:19:56;7.93;;;2.40;;
5519;SDS011;2782;52.362;10.012;2023-07-20T01:20:59;6.05;;;2.35;;
5519;SDS011;2782;52.362;10.012;2023-07-20T01:22:03;6.30;;;2.35;;
5519;SDS011;2782;52.362;10.012;2023-07-20T01:25:03;6.15;;;2.50;;
5519;SDS011;2782;52.362;10.012;2023-07-20T01:26:27;7.25;;;1.90;;
5519;SDS011;2782;52.362;10.012;2023-07-20T01:27:53;6.25;;;1.95;;
5519;SDS011;2782;52.362;10.012;2023-07-20T01:29:25;6.18;;;2.10;;
5519;SDS011;2782;52.362;10.012;2023-07-20T01:30:41;5.35;;;2.10;;
5519;SDS011;2782;52.362;10.012;2023-07-20T01:31:49;8.52;;;2.53;;
5519;SDS011;2782;52.362;10.012;2023-07-20T01:32:53;7.20;;;2.47;;
5519;SDS011;2782;52.362;10.012;2023-07-20T01:33:57;6.55;;;1.80;;
5519;SDS011;2782;52.362;10.012;2023-07-20T01:35:00;5.47;;;1.80;;
5519;SDS011;2782;52.362;10.012;2023-07-20T01:36:03;4.55;;;1.40;;
5519;SDS011;2782;52.362;10.012;2023-07-20T01:37:05;5.18;;;1.90;;
5519;SDS011;2782;52.362;10.012;2023-07-20T01:38:08;5.80;;;2.30;;
5519;SDS011;2782;52.362;10.012;2023-07-20T01:39:09;6.13;;;1.55;;
5519;SDS011;2782;52.362;10.012;2023-07-20T01:40:12;5.63;;;1.85;;
5519;SDS011;2782;52.362;10.012;2023-07-20T01:41:14;5.00;;;2.20;;
5519;SDS011;2782;52.362;10.012;2023-07-20T01:42:16;6.25;;;2.03;;
5519;SDS011;2782;52.362;10.012;2023-07-20T01:43:17;6.10;;;2.15;;
5519;SDS011;2782;52.362;10.012;2023-07-20T01:44:19;7.20;;;2.05;;
5519;SDS011;2782;52.362;10.012;2023-07-20T01:45:20;5.73;;;2.20;;
5519;SDS011;2782;52.362;10.012;2023-07-20T01:46:22;7.63;;;2.22;;
5519;SDS011;2782;52.362;10.012;2023-07-20T01:47:24;5.77;;;1.63;;
5519;SDS011;2782;52.362;10.012;2023-07-20T01:48:25;3.88;;;1.58;;
5519;SDS011;2782;52.362;10.012;2023-07-20T01:49:26;7.63;;;2.37;;
5519;SDS011;2782;52.362;10.012;2023-07-20T01:50:28;5.47;;;1.88;;
5519;SDS011;2782;52.362;10.012;2023-07-20T01:51:28;6.33;;;1.97;;
5519;SDS011;2782;52.362;10.012;2023-07-20T01:52:30;9.10;;;1.60;;
5519;SDS011;2782;52.362;10.012;2023-07-20T01:53:31;7.30;;;2.23;;
5519;SDS011;2782;52.362;10.012;2023-07-20T01:54:33;3.55;;;1.65;;
5519;SDS011;2782;52.362;10.012;2023-07-20T01:55:33;3.57;;;1.33;;
5519;SDS011;2782;52.362;10.012;2023-07-20T01:56:35;4.07;;;1.55;;
5519;SDS011;2782;52.362;10.012;2023-07-20T01:57:36;5.03;;;1.77;;
5519;SDS011;2782;52.362;10.012;2023-07-20T01:58:38;6.32;;;2.25;;
5519;SDS011;2782;52.362;10.012;2023-07-20T01:59:39;5.60;;;2.17;;
5519;SDS011;2782;52.362;10.012;2023-07-20T02:00:41;4.85;;;1.67;;
5519;SDS011;2782;52.362;10.012;2023-07-20T02:01:42;4.10;;;1.53;;
5519;SDS011;2782;52.362;10.012;2023-07-20T02:02:44;6.97;;;2.00;;
5519;SDS011;2782;52.362;10.012;2023-07-20T02:03:45;4.22;;;1.48;;
5519;SDS011;2782;52.362;10.012;2023-07-20T02:04:47;2.60;;;1.65;;
5519;SDS011;2782;52.362;10.012;2023-07-20T02:05:48;3.50;;;1.70;;
5519;SDS011;2782;52.362;10.012;2023-07-20T02:06:50;5.13;;;1.80;;
5519;SDS011;2782;52.362;10.012;2023-07-20T02:07:51;3.20;;;1.50;;
5519;SDS011;2782;52.362;10.012;2023-07-20T02:08:52;7.65;;;2.00;;
5519;SDS011;2782;52.362;10.012;2023-07-20T02:09:53;3.87;;;1.27;;
5519;SDS011;2782;52.362;10.012;2023-07-20T02:10:54;2.15;;;1.40;;
5519;SDS011;2782;52.362;10.012;2023-07-20T02:11:55;7.93;;;1.70;;
5519;SDS011;2782;52.362;10.012;2023-07-20T02:12:57;6.45;;;1.63;;
5519;SDS011;2782;52.362;10.012;2023-07-20T02:13:57;4.27;;;1.47;;
5519;SDS011;2782;52.362;10.012;2023-07-20T02:14:59;3.80;;;1.55;;
5519;SDS011;2782;52.362;10.012;2023-07-20T02:16:01;4.30;;;1.58;;
5519;SDS011;2782;52.362;10.012;2023-07-20T02:17:03;6.00;;;1.60;;
5519;SDS011;2782;52.362;10.012;2023-07-20T02:18:05;6.60;;;2.20;;
5519;SDS011;2782;52.362;10.012;2023-07-20T02:19:07;5.97;;;2.20;;
5519;SDS011;2782;52.362;10.012;2023-07-20T02:20:08;5.70;;;1.80;;
5519;SDS011;2782;52.362;10.012;2023-07-20T02:21:10;4.40;;;1.73;;
5519;SDS011;2782;52.362;10.012;2023-07-20T02:22:10;3.10;;;1.37;;
5519;SDS011;2782;52.362;10.012;2023-07-20T02:23:12;7.95;;;2.35;;
5519;SDS011;2782;52.362;10.012;2023-07-20T02:24:13;6.40;;;2.00;;
5519;SDS011;2782;52.362;10.012;2023-07-20T02:25:14;4.13;;;1.77;;
5519;SDS011;2782;52.362;10.012;2023-07-20T02:26:16;3.42;;;1.45;;
5519;SDS011;2782;52.362;10.012;2023-07-20T02:27:17;6.33;;;1.57;;
5519;SDS011;2782;52.362;10.012;2023-07-20T02:28:18;5.82;;;2.03;;
5519;SDS011;2782;52.362;10.012;2023-07-20T02:29:19;5.77;;;2.10;;
5519;SDS011;2782;52.362;10.012;2023-07-20T02:30:21;4.40;;;1.92;;
5519;SDS011;2782;52.362;10.012;2023-07-20T02:31:22;4.50;;;1.67;;
5519;SDS011;2782;52.362;10.012;2023-07-20T02:32:23;3.20;;;1.35;;
5519;SDS011;2782;52.362;10.012;2023-07-20T02:33:25;3.47;;;1.30;;
5519;SDS011;2782;52.362;10.012;2023-07-20T02:34:27;4.47;;;1.27;;
5519;SDS011;2782;52.362;10.012;2023-07-20T02:35:28;4.90;;;1.60;;
5519;SDS011;2782;52.362;10.012;2023-07-20T02:36:30;2.13;;;1.15;;
5519;SDS011;2782;52.362;10.012;2023-07-20T02:37:32;5.85;;;1.60;;
5519;SDS011;2782;52.362;10.012;2023-07-20T02:38:34;4.38;;;1.75;;
5519;SDS011;2782;52.362;10.012;2023-07-20T02:39:35;3.87;;;1.87;;
5519;SDS011;2782;52.362;10.012;2023-07-20T02:40:36;3.10;;;1.52;;
5519;SDS011;2782;52.362;10.012;2023-07-20T02:41:37;2.93;;;1.50;;
5519;SDS011;2782;52.362;10.012;2023-07-20T02:42:39;5.53;;;1.55;;
5519;SDS011;2782;52.362;10.012;2023-07-20T02:43:39;4.27;;;1.50;;
5519;SDS011;2782;52.362;10.012;2023-07-20T02:44:41;3.63;;;1.30;;
5519;SDS011;2782;52.362;10.012;2023-07-20T02:45:42;3.70;;;1.50;;
5519;SDS011;2782;52.362;10.012;2023-07-20T02:46:44;3.78;;;1.13;;
5519;SDS011;2782;52.362;10.012;2023-07-20T02:47:44;3.07;;;1.30;;
5519;SDS011;2782;52.362;10.012;2023-07-20T02:48:47;4.40;;;1.05;;
5519;SDS011;2782;52.362;10.012;2023-07-20T02:49:48;6.03;;;1.45;;
5519;SDS011;2782;52.362;10.012;2023-07-20T02:50:50;2.78;;;1.40;;
5519;SDS011;2782;52.362;10.012;2023-07-20T02:51:51;3.63;;;1.33;;
5519;SDS011;2782;52.362;10.012;2023-07-20T02:52:52;3.10;;;1.20;;
5519;SDS011;2782;52.362;10.012;2023-07-20T02:53:53;2.83;;;1.13;;
5519;SDS011;2782;52.362;10.012;2023-07-20T02:54:54;8.07;;;1.30;;
5519;SDS011;2782;52.362;10.012;2023-07-20T02:55:55;6.23;;;1.20;;
5519;SDS011;2782;52.362;10.012;2023-07-20T02:56:57;3.83;;;1.10;;
5519;SDS011;2782;52.362;10.012;2023-07-20T02:57:57;3.97;;;1.70;;
5519;SDS011;2782;52.362;10.012;2023-07-20T02:59:00;3.53;;;1.38;;
5519;SDS011;2782;52.362;10.012;2023-07-20T03:00:01;3.92;;;1.38;;
5519;SDS011;2782;52.362;10.012;2023-07-20T03:01:04;3.58;;;1.55;;
5519;SDS011;2782;52.362;10.012;2023-07-20T03:02:05;2.67;;;1.20;;
5519;SDS011;2782;52.362;10.012;2023-07-20T03:03:09;2.10;;;1.23;;
5519;SDS011;2782;52.362;10.012;2023-07-20T03:04:12;4.05;;;1.60;;
5519;SDS011;2782;52.362;10.012;2023-07-20T03:05:13;6.18;;;1.70;;
5519;SDS011;2782;52.362;10.012;2023-07-20T03:06:16;6.65;;;1.45;;
5519;SDS011;2782;52.362;10.012;2023-07-20T03:07:17;1.90;;;1.07;;
5519;SDS011;2782;52.362;10.012;2023-07-20T03:08:19;3.47;;;0.90;;
5519;SDS011;2782;52.362;10.012;2023-07-20T03:09:19;3.27;;;1.60;;
5519;SDS011;2782;52.362;10.012;2023-07-20T03:10:22;4.25;;;1.42;;
5519;SDS011;2782;52.362;10.012;2023-07-20T03:11:22;3.63;;;1.63;;
5519;SDS011;2782;52.362;10.012;2023-07-20T03:12:24;2.60;;;1.40;;
5519;SDS011;2782;52.362;10.012;2023-07-20T03:13:25;1.80;;;1.03;;
5519;SDS011;2782;52.362;10.012;2023-07-20T03:14:26;3.92;;;1.40;;
5519;SDS011;2782;52.362;10.012;2023-07-20T03:15:27;5.68;;;1.42;;
5519;SDS011;2782;52.362;10.012;2023-07-20T03:16:29;6.15;;;0.90;;
5519;SDS011;2782;52.362;10.012;2023-07-20T03:17:32;3.22;;;1.52;;
5519;SDS011;2782;52.362;10.012;2023-07-20T03:18:33;3.10;;;1.10;;
5519;SDS011;2782;52.362;10.012;2023-07-20T03:19:36;5.15;;;1.90;;
5519;SDS011;2782;52.362;10.012;2023-07-20T03:20:37;2.28;;;1.20;;
5519;SDS011;2782;52.362;10.012;2023-07-20T03:21:39;1.83;;;1.15;;
5519;SDS011;2782;52.362;10.012;2023-07-20T03:22:41;2.90;;;1.15;;
5519;SDS011;2782;52.362;10.012;2023-07-20T03:23:42;3.88;;;1.30;;
5519;SDS011;2782;52.362;10.012;2023-07-20T03:24:43;2.23;;;0.90;;
5519;SDS011;2782;52.362;10.012;2023-07-20T03:25:44;3.13;;;1.10;;
5519;SDS011;2782;52.362;10.012;2023-07-20T03:26:45;3.17;;;0.90;;
5519;SDS011;2782;52.362;10.012;2023-07-20T03:27:46;2.20;;;0.90;;
5519;SDS011;2782;52.362;10.012;2023-07-20T03:28:48;2.60;;;1.10;;
5519;SDS011;2782;52.362;10.012;2023-07-20T03:29:49;3.60;;;0.88;;
5519;SDS011;2782;52.362;10.012;2023-07-20T03:30:52;4.22;;;1.13;;
5519;SDS011;2782;52.362;10.012;2023-07-20T03:31:53;2.10;;;0.80;;
5519;SDS011;2782;52.362;10.012;2023-07-20T03:32:55;4.00;;;1.65;;
5519;SDS011;2782;52.362;10.012;2023-07-20T03:33:55;3.50;;;0.90;;
5519;SDS011;2782;52.362;10.012;2023-07-20T03:34:57;3.90;;;1.10;;
5519;SDS011;2782;52.362;10.012;2023-07-20T03:35:59;2.55;;;1.08;;
5519;SDS011;2782;52.362;10.012;2023-07-20T03:37:00;2.37;;;1.10;;
5519;SDS011;2782;52.362;10.012;2023-07-20T03:38:04;3.47;;;1.35;;
5519;SDS011;2782;52.362;10.012;2023-07-20T03:39:05;3.73;;;1.27;;
5519;SDS011;2782;52.362;10.012;2023-07-20T03:40:07;2.65;;;1.27;;
5519;SDS011;2782;52.362;10.012;2023-07-20T03:41:08;5.45;;;1.35;;
5519;SDS011;2782;52.362;10.012;2023-07-20T03:42:11;2.50;;;1.10;;
5519;SDS011;2782;52.362;10.012;2023-07-20T03:43:12;2.50;;;1.20;;
5519;SDS011;2782;52.362;10.012;2023-07-20T03:44:14;3.45;;;1.50;;
5519;SDS011;2782;52.362;10.012;2023-07-20T03:45:14;2.10;;;0.73;;
5519;SDS011;2782;52.362;10.012;2023-07-20T03:46:16;2.22;;;1.13;;
5519;SDS011;2782;52.362;10.012;2023-07-20T03:47:17;1.57;;;0.67;;
5519;SDS011;2782;52.362;10.012;2023-07-20T03:48:19;2.45;;;1.10;;
5519;SDS011;2782;52.362;10.012;2023-07-20T03:49:21;1.75;;;1.05;;
5519;SDS011;2782;52.362;10.012;2023-07-20T03:50:24;2.00;;;0.98;;
5519;SDS011;2782;52.362;10.012;2023-07-20T03:51:25;2.55;;;0.98;;
5519;SDS011;2782;52.362;10.012;2023-07-20T03:52:27;2.60;;;1.00;;
5519;SDS011;2782;52.362;10.012;2023-07-20T03:53:28;3.20;;;1.10;;
5519;SDS011;2782;52.362;10.012;2023-07-20T03:54:30;2.75;;;1.10;;
5519;SDS011;2782;52.362;10.012;2023-07-20T03:55:31;4.38;;;1.80;;
5519;SDS011;2782;52.362;10.012;2023-07-20T03:56:33;3.40;;;1.30;;
5519;SDS011;2782;52.362;10.012;2023-07-20T03:57:35;2.22;;;1.08;;
5519;SDS011;2782;52.362;10.012;2023-07-20T03:58:36;3.20;;;1.00;;
5519;SDS011;2782;52.362;10.012;2023-07-20T03:59:38;2.90;;;1.03;;
5519;SDS011;2782;52.362;10.012;2023-07-20T04:00:43;1.75;;;1.00;;
5519;SDS011;2782;52.362;10.012;2023-07-20T04:01:45;1.85;;;0.98;;
5519;SDS011;2782;52.362;10.012;2023-07-20T04:02:46;4.47;;;0.90;;
5519;SDS011;2782;52.362;10.012;2023-07-20T04:03:47;2.53;;;1.13;;
5519;SDS011;2782;52.362;10.012;2023-07-20T04:04:48;2.95;;;1.20;;
5519;SDS011;2782;52.362;10.012;2023-07-20T04:05:52;2.17;;;1.15;;
5519;SDS011;2782;52.362;10.012;2023-07-20T04:06:54;1.15;;;0.52;;
5519;SDS011;2782;52.362;10.012;2023-07-20T04:07:55;1.40;;;0.70;;
5519;SDS011;2782;52.362;10.012;2023-07-20T04:08:57;2.58;;;0.70;;
5519;SDS011;2782;52.362;10.012;2023-07-20T04:09:58;2.03;;;1.08;;
5519;SDS011;2782;52.362;10.012;2023-07-20T04:11:00;3.95;;;1.10;;
5519;SDS011;2782;52.362;10.012;2023-07-20T04:12:01;2.40;;;0.90;;
5519;SDS011;2782;52.362;10.012;2023-07-20T04:13:03;3.22;;;1.08;;
5519;SDS011;2782;52.362;10.012;2023-07-20T04:14:04;2.35;;;1.10;;
5519;SDS011;2782;52.362;10.012;2023-07-20T04:15:06;2.67;;;0.88;;
5519;SDS011;2782;52.362;10.012;2023-07-20T04:16:08;1.42;;;0.90;;
5519;SDS011;2782;52.362;10.012;2023-07-20T04:17:09;2.90;;;0.87;;
5519;SDS011;2782;52.362;10.012;2023-07-20T04:18:13;1.67;;;1.10;;
5519;SDS011;2782;52.362;10.012;2023-07-20T04:19:13;2.03;;;1.30;;
5519;SDS011;2782;52.362;10.012;2023-07-20T04:20:15;2.35;;;0.75;;
5519;SDS011;2782;52.362;10.012;2023-07-20T04:21:19;2.90;;;1.10;;
5519;SDS011;2782;52.362;10.012;2023-07-20T04:22:21;2.85;;;1.25;;
5519;SDS011;2782;52.362;10.012;2023-07-20T04:23:21;1.00;;;0.70;;
5519;SDS011;2782;52.362;10.012;2023-07-20T04:24:23;2.42;;;1.15;;
5519;SDS011;2782;52.362;10.012;2023-07-20T04:25:24;2.60;;;0.80;;
5519;SDS011;2782;52.362;10.012;2023-07-20T04:26:26;2.47;;;0.85;;
5519;SDS011;2782;52.362;10.012;2023-07-20T04:27:26;1.23;;;0.77;;
5519;SDS011;2782;52.362;10.012;2023-07-20T04:28:28;3.25;;;1.90;;
5519;SDS011;2782;52.362;10.012;2023-07-20T04:29:29;1.90;;;0.90;;
5519;SDS011;2782;52.362;10.012;2023-07-20T04:30:30;3.00;;;1.13;;
5519;SDS011;2782;52.362;10.012;2023-07-20T04:31:31;1.57;;;1.13;;
5519;SDS011;2782;52.362;10.012;2023-07-20T04:32:33;1.80;;;0.70;;
5519;SDS011;2782;52.362;10.012;2023-07-20T04:33:34;1.63;;;0.90;;
5519;SDS011;2782;52.362;10.012;2023-07-20T04:34:35;0.70;;;0.60;;
5519;SDS011;2782;52.362;10.012;2023-07-20T04:35:47;0.90;;;0.47;;
5519;SDS011;2782;52.362;10.012;2023-07-20T04:36:51;1.05;;;0.60;;
5519;SDS011;2782;52.362;10.012;2023-07-20T04:37:52;2.15;;;0.50;;
5519;SDS011;2782;52.362;10.012;2023-07-20T04:38:52;1.37;;;0.70;;
5519;SDS011;2782;52.362;10.012;2023-07-20T04:39:54;2.05;;;0.73;;
5519;SDS011;2782;52.362;10.012;2023-07-20T04:40:55;1.00;;;0.43;;
5519;SDS011;2782;52.362;10.012;2023-07-20T04:41:57;1.35;;;0.70;;
5519;SDS011;2782;52.362;10.012;2023-07-20T04:42:58;0.93;;;0.30;;
5519;SDS011;2782;52.362;10.012;2023-07-20T04:43:59;2.13;;;0.40;;
5519;SDS011;2782;52.362;10.012;2023-07-20T04:45:00;1.37;;;0.47;;
5519;SDS011;2782;52.362;10.012;2023-07-20T04:46:01;2.58;;;0.52;;
5519;SDS011;2782;52.362;10.012;2023-07-20T04:47:02;0.90;;;0.40;;
5519;SDS011;2782;52.362;10.012;2023-07-20T04:48:06;1.90;;;0.40;;
5519;SDS011;2782;52.362;10.012;2023-07-20T04:49:09;2.70;;;0.32;;
5519;SDS011;2782;52.362;10.012;2023-07-20T04:50:12;4.40;;;0.57;;
5519;SDS011;2782;52.362;10.012;2023-07-20T04:51:13;1.80;;;0.40;;
5519;SDS011;2782;52.362;10.012;2023-07-20T04:52:16;1.58;;;0.50;;
5519;SDS011;2782;52.362;10.012;2023-07-20T04:53:17;3.83;;;0.50;;
5519;SDS011;2782;52.362;10.012;2023-07-20T04:54:17;4.30;;;0.40;;
5519;SDS011;2782;52.362;10.012;2023-07-20T04:55:19;4.25;;;0.50;;
5519;SDS011;2782;52.362;10.012;2023-07-20T04:56:22;3.58;;;0.70;;
5519;SDS011;2782;52.362;10.012;2023-07-20T04:57:24;11.75;;;0.75;;
5519;SDS011;2782;52.362;10.012;2023-07-20T04:58:25;3.70;;;0.60;;
5519;SDS011;2782;52.362;10.012;2023-07-20T04:59:27;5.80;;;0.60;;
5519;SDS011;2782;52.362;10.012;2023-07-20T05:00:29;5.72;;;0.60;;
5519;SDS011;2782;52.362;10.012;2023-07-20T05:01:29;8.93;;;1.47;;
5519;SDS011;2782;52.362;10.012;2023-07-20T05:02:31;8.70;;;1.50;;
5519;SDS011;2782;52.362;10.012;2023-07-20T05:03:33;11.73;;;3.13;;
5519;SDS011;2782;52.362;10.012;2023-07-20T05:04:36;9.85;;;2.33;;
5519;SDS011;2782;52.362;10.012;2023-07-20T05:05:37;6.18;;;1.60;;
5519;SDS011;2782;52.362;10.012;2023-07-20T05:06:38;5.45;;;1.10;;
5519;SDS011;2782;52.362;10.012;2023-07-20T05:07:42;6.28;;;1.10;;
5519;SDS011;2782;52.362;10.012;2023-07-20T05:08:43;5.70;;;1.05;;
5519;SDS011;2782;52.362;10.012;2023-07-20T05:09:45;4.25;;;1.10;;
5519;SDS011;2782;52.362;10.012;2023-07-20T05:10:47;4.60;;;1.48;;
5519;SDS011;2782;52.362;10.012;2023-07-20T05:11:49;5.45;;;1.55;;
5519;SDS011;2782;52.362;10.012;2023-07-20T05:12:50;4.68;;;1.33;;
5519;SDS011;2782;52.362;10.012;2023-07-20T05:13:52;6.22;;;1.23;;
5519;SDS011;2782;52.362;10.012;2023-07-20T05:14:53;6.93;;;1.48;;
5519;SDS011;2782;52.362;10.012;2023-07-20T05:15:56;3.58;;;1.33;;
5519;SDS011;2782;52.362;10.012;2023-07-20T05:16:57;9.50;;;2.25;;
5519;SDS011;2782;52.362;10.012;2023-07-20T05:18:00;3.80;;;1.58;;
5519;SDS011;2782;52.362;10.012;2023-07-20T05:19:01;6.75;;;2.00;;
5519;SDS011;2782;52.362;10.012;2023-07-20T05:20:04;6.03;;;2.05;;
5519;SDS011;2782;52.362;10.012;2023-07-20T05:21:07;23.30;;;5.13;;
5519;SDS011;2782;52.362;10.012;2023-07-20T05:22:09;24.23;;;6.70;;
5519;SDS011;2782;52.362;10.012;2023-07-20T05:23:13;26.75;;;7.20;;
5519;SDS011;2782;52.362;10.012;2023-07-20T05:24:16;27.70;;;5.88;;
5519;SDS011;2782;52.362;10.012;2023-07-20T05:25:17;23.67;;;5.45;;
5519;SDS011;2782;52.362;10.012;2023-07-20T05:26:18;14.02;;;4.80;;
5519;SDS011;2782;52.362;10.012;2023-07-20T05:27:20;12.52;;;3.72;;
5519;SDS011;2782;52.362;10.012;2023-07-20T05:28:22;14.43;;;4.10;;
5519;SDS011;2782;52.362;10.012;2023-07-20T05:29:26;9.38;;;3.60;;
5519;SDS011;2782;52.362;10.012;2023-07-20T05:30:28;12.75;;;3.25;;
5519;SDS011;2782;52.362;10.012;2023-07-20T05:31:37;9.85;;;3.03;;
5519;SDS011;2782;52.362;10.012;2023-07-20T05:32:55;12.05;;;3.10;;
5519;SDS011;2782;52.362;10.012;2023-07-20T05:34:21;9.38;;;3.13;;
5519;SDS011;2782;52.362;10.012;2023-07-20T05:41:32;15.43;;;2.92;;
5519;SDS011;2782;52.362;10.012;2023-07-20T05:42:57;10.85;;;2.47;;
5519;SDS011;2782;52.362;10.012;2023-07-20T05:44:28;11.20;;;2.58;;
5519;SDS011;2782;52.362;10.012;2023-07-20T05:45:53;10.15;;;2.60;;
5519;SDS011;2782;52.362;10.012;2023-07-20T05:46:55;14.80;;;2.70;;
5519;SDS011;2782;52.362;10.012;2023-07-20T05:47:56;9.13;;;2.60;;
5519;SDS011;2782;52.362;10.012;2023-07-20T05:48:59;9.30;;;2.20;;
5519;SDS011;2782;52.362;10.012;2023-07-20T05:50:00;6.85;;;1.63;;
5519;SDS011;2782;52.362;10.012;2023-07-20T05:51:03;3.72;;;1.35;;
5519;SDS011;2782;52.362;10.012;2023-07-20T05:52:05;2.42;;;1.15;;
5519;SDS011;2782;52.362;10.012;2023-07-20T05:53:08;3.17;;;1.30;;
5519;SDS011;2782;52.362;10.012;2023-07-20T05:54:10;1.55;;;1.13;;
5519;SDS011;2782;52.362;10.012;2023-07-20T05:55:12;3.03;;;0.90;;
5519;SDS011;2782;52.362;10.012;2023-07-20T05:56:13;5.07;;;0.70;;
5519;SDS011;2782;52.362;10.012;2023-07-20T05:57:17;1.25;;;0.70;;
5519;SDS011;2782;52.362;10.012;2023-07-20T05:58:18;1.15;;;0.70;;
5519;SDS011;2782;52.362;10.012;2023-07-20T05:59:20;1.02;;;0.70;;
5519;SDS011;2782;52.362;10.012;2023-07-20T06:00:21;0.93;;;0.85;;
5519;SDS011;2782;52.362;10.012;2023-07-20T06:01:43;1.95;;;0.85;;
5519;SDS011;2782;52.362;10.012;2023-07-20T06:02:45;1.77;;;0.68;;
5519;SDS011;2782;52.362;10.012;2023-07-20T06:03:47;1.92;;;0.88;;
5519;SDS011;2782;52.362;10.012;2023-07-20T06:04:48;0.90;;;0.80;;
5519;SDS011;2782;52.362;10.012;2023-07-20T06:05:50;2.50;;;0.73;;
5519;SDS011;2782;52.362;10.012;2023-07-20T06:06:51;3.63;;;0.98;;
5519;SDS011;2782;52.362;10.012;2023-07-20T06:07:53;1.65;;;0.80;;
5519;SDS011;2782;52.362;10.012;2023-07-20T06:08:54;0.85;;;0.73;;
5519;SDS011;2782;52.362;10.012;2023-07-20T06:09:57;0.93;;;0.50;;
5519;SDS011;2782;52.362;10.012;2023-07-20T06:10:59;1.98;;;0.77;;
5519;SDS011;2782;52.362;10.012;2023-07-20T06:12:01;2.15;;;0.60;;
5519;SDS011;2782;52.362;10.012;2023-07-20T06:13:02;2.22;;;0.70;;
5519;SDS011;2782;52.362;10.012;2023-07-20T06:14:04;1.48;;;0.80;;
5519;SDS011;2782;52.362;10.012;2023-07-20T06:15:05;1.80;;;0.90;;
5519;SDS011;2782;52.362;10.012;2023-07-20T06:16:25;0.80;;;0.63;;
5519;SDS011;2782;52.362;10.012;2023-07-20T06:17:26;1.50;;;0.80;;
5519;SDS011;2782;52.362;10.012;2023-07-20T06:18:27;1.30;;;0.70;;
5519;SDS011;2782;52.362;10.012;2023-07-20T06:19:29;4.35;;;1.00;;
5519;SDS011;2782;52.362;10.012;2023-07-20T06:20:31;1.55;;;0.80;;
5519;SDS011;2782;52.362;10.012;2023-07-20T06:21:31;2.27;;;0.90;;
5519;SDS011;2782;52.362;10.012;2023-07-20T06:22:33;1.20;;;1.02;;
5519;SDS011;2782;52.362;10.012;2023-07-20T06:23:34;1.02;;;0.93;;
5519;SDS011;2782;52.362;10.012;2023-07-20T06:24:36;1.05;;;0.95;;
5519;SDS011;2782;52.362;10.012;2023-07-20T06:25:39;1.43;;;1.10;;
5519;SDS011;2782;52.362;10.012;2023-07-20T06:26:41;10.43;;;1.27;;
5519;SDS011;2782;52.362;10.012;2023-07-20T06:27:42;1.85;;;1.00;;
5519;SDS011;2782;52.362;10.012;2023-07-20T06:28:44;2.67;;;1.10;;
5519;SDS011;2782;52.362;10.012;2023-07-20T06:29:45;2.67;;;1.00;;
5519;SDS011;2782;52.362;10.012;2023-07-20T06:30:47;5.57;;;1.30;;